Time;durP1;ratioP1;P1;durP2;ratioP2;P2;SDS_P1;SDS_P2;PMS_P1;PMS_P2;Temp;Humidity;BMP_temperature;BMP_pressure;BME280_temperature;BME280_humidity;BME280_pressure;Samples;Min_cycle;Max_cycle;Signal;HPM_P1;HPM_P2
2021/03/21 00:01:53;;;;;;;15.20;12.23;;;3.10;99.90;;;;;;5031974;28;20411;-67
2021/03/21 00:04:19;;;;;;;11.27;10.17;;;3.00;99.90;;;;;;5032195;28;20260;-67
2021/03/21 00:06:45;;;;;;;13.57;12.27;;;3.00;99.90;;;;;;5032518;28;20169;-67
2021/03/21 00:09:11;;;;;;;16.93;12.70;;;3.00;99.90;;;;;;5032037;28;20176;-67
2021/03/21 00:11:38;;;;;;;15.23;13.60;;;3.00;99.90;;;;;;5031574;28;20192;-67
2021/03/21 00:14:04;;;;;;;16.87;13.00;;;3.00;99.90;;;;;;5032012;28;20423;-67
2021/03/21 00:16:32;;;;;;;13.80;12.37;;;3.00;99.90;;;;;;5031958;28;20490;-67
2021/03/21 00:18:58;;;;;;;13.50;12.20;;;2.90;99.90;;;;;;5031067;28;20775;-67
2021/03/21 00:21:23;;;;;;;16.33;12.97;;;3.00;99.90;;;;;;5031766;28;20407;-67
2021/03/21 00:23:49;;;;;;;13.67;12.37;;;3.00;99.90;;;;;;5031899;28;20939;-67
2021/03/21 00:26:15;;;;;;;17.77;11.70;;;3.00;99.90;;;;;;5031921;28;20582;-67
2021/03/21 00:28:41;;;;;;;14.90;11.70;;;3.00;99.90;;;;;;5031786;28;20212;-67
2021/03/21 00:31:09;;;;;;;15.37;12.20;;;3.00;99.90;;;;;;5031535;28;20192;-66
2021/03/21 00:33:37;;;;;;;15.83;13.20;;;3.00;99.90;;;;;;5031808;28;20435;-67
2021/03/21 00:36:04;;;;;;;15.27;13.10;;;2.90;99.90;;;;;;5031857;28;20407;-67
2021/03/21 00:38:33;;;;;;;13.80;12.40;;;2.90;99.90;;;;;;5031683;28;20407;-67
2021/03/21 00:40:59;;;;;;;18.60;14.80;;;3.00;99.90;;;;;;5031481;28;20446;-67
2021/03/21 00:43:26;;;;;;;15.37;13.73;;;3.00;99.90;;;;;;5031775;28;20480;-67
2021/03/21 00:45:52;;;;;;;21.53;15.30;;;3.00;99.90;;;;;;5031719;28;20415;-67
2021/03/21 00:48:39;;;;;;;15.27;13.17;;;3.00;99.90;;;;;;5031545;28;20417;-67
2021/03/21 00:51:05;;;;;;;14.63;13.00;;;3.00;99.90;;;;;;5031158;28;20455;-67
2021/03/21 00:53:31;;;;;;;15.63;14.07;;;3.00;99.90;;;;;;5030257;28;20438;-67
2021/03/21 00:55:57;;;;;;;17.00;14.30;;;3.00;99.90;;;;;;5031571;28;20433;-67
2021/03/21 00:58:23;;;;;;;16.37;13.70;;;3.10;99.90;;;;;;5031629;28;20437;-67
2021/03/21 01:00:52;;;;;;;17.13;15.53;;;3.10;99.90;;;;;;5031169;28;20498;-67
2021/03/21 01:03:18;;;;;;;19.03;14.93;;;3.00;99.90;;;;;;5034318;28;20919;-67
2021/03/21 01:06:07;;;;;;;16.40;14.67;;;3.00;99.90;;;;;;5035460;28;20395;-67
2021/03/21 01:08:37;;;;;;;15.23;13.67;;;3.00;99.90;;;;;;5034885;28;20430;-67
2021/03/21 01:11:13;;;;;;;16.00;14.37;;;3.00;99.90;;;;;;5035099;28;21031;-67
2021/03/21 01:13:40;;;;;;;17.23;15.37;;;3.00;99.90;;;;;;5035428;28;20854;-67
2021/03/21 01:16:18;;;;;;;17.93;15.30;;;3.00;99.90;;;;;;5035256;28;20978;-67
2021/03/21 01:18:44;;;;;;;16.13;14.00;;;3.00;99.90;;;;;;5035321;28;20407;-67
2021/03/21 01:21:13;;;;;;;15.83;14.23;;;3.00;99.90;;;;;;5035280;28;20772;-67
2021/03/21 01:23:41;;;;;;;17.10;14.93;;;3.10;99.90;;;;;;5035164;28;20477;-67
2021/03/21 01:26:12;;;;;;;18.10;16.30;;;3.20;99.90;;;;;;5035241;28;20408;-67
2021/03/21 01:28:37;;;;;;;19.00;15.70;;;3.20;99.90;;;;;;5034820;28;20465;-67
2021/03/21 01:31:07;;;;;;;24.87;16.87;;;3.20;99.90;;;;;;5034752;28;20474;-67
2021/03/21 01:33:34;;;;;;;18.30;15.20;;;3.20;99.90;;;;;;5034985;28;20220;-67
2021/03/21 01:36:01;;;;;;;17.30;14.20;;;3.30;99.90;;;;;;5035055;28;20411;-67
2021/03/21 01:38:27;;;;;;;18.37;15.00;;;3.20;99.90;;;;;;5034806;28;20406;-67
2021/03/21 01:40:56;;;;;;;20.80;16.57;;;3.20;99.90;;;;;;5034698;28;20414;-67
2021/03/21 01:43:30;;;;;;;21.47;15.20;;;3.20;99.90;;;;;;5034739;28;20242;-67
2021/03/21 01:45:56;;;;;;;19.57;15.97;;;3.20;99.90;;;;;;5034932;28;20399;-67
2021/03/21 01:48:41;;;;;;;18.97;16.23;;;3.20;99.90;;;;;;5034811;28;20954;-67
2021/03/21 01:51:27;;;;;;;19.83;16.47;;;3.10;99.90;;;;;;5034215;28;20450;-67
2021/03/21 01:53:56;;;;;;;21.20;15.90;;;3.10;99.90;;;;;;5034529;28;20411;-67
2021/03/21 01:56:24;;;;;;;20.03;17.80;;;3.00;99.90;;;;;;5034602;28;20412;-67
2021/03/21 01:58:58;;;;;;;20.47;16.00;;;3.10;99.90;;;;;;5034532;28;21205;-67
2021/03/21 02:01:28;;;;;;;20.87;17.40;;;3.10;99.90;;;;;;5034390;28;20431;-67
2021/03/21 02:03:54;;;;;;;22.70;16.73;;;3.00;99.90;;;;;;5034417;28;20430;-67
2021/03/21 02:06:29;;;;;;;22.90;17.20;;;3.00;99.90;;;;;;5034369;28;20407;-67
2021/03/21 02:09:01;;;;;;;18.73;16.60;;;3.00;99.90;;;;;;5034183;28;20430;-67
2021/03/21 02:11:39;;;;;;;18.30;16.10;;;3.00;99.90;;;;;;5033988;28;20455;-67
2021/03/21 02:14:19;;;;;;;22.67;17.63;;;3.00;99.90;;;;;;5033934;28;20473;-67
2021/03/21 02:17:20;;;;;;;21.53;17.57;;;3.00;99.90;;;;;;5034209;28;20884;-67
2021/03/21 02:20:07;;;;;;;21.17;16.27;;;3.10;99.90;;;;;;5034216;28;20468;-67
2021/03/21 02:22:41;;;;;;;20.30;17.30;;;3.10;99.90;;;;;;5033769;28;20923;-67
2021/03/21 02:25:21;;;;;;;20.33;15.90;;;3.20;99.90;;;;;;5034049;28;20419;-67
2021/03/21 02:28:29;;;;;;;26.00;18.73;;;3.20;99.90;;;;;;5033972;28;20938;-67
2021/03/21 02:31:01;;;;;;;20.17;15.73;;;3.30;99.90;;;;;;5033107;28;20428;-67
2021/03/21 02:33:41;;;;;;;20.03;17.03;;;3.30;99.90;;;;;;5033871;28;20415;-67
2021/03/21 02:36:14;;;;;;;23.10;17.07;;;3.30;99.90;;;;;;5033970;28;20410;-67
2021/03/21 02:39:01;;;;;;;24.37;18.10;;;3.30;99.90;;;;;;5033962;28;20417;-67
2021/03/21 02:41:36;;;;;;;22.07;17.80;;;3.30;99.90;;;;;;5033455;28;20509;-67
2021/03/21 02:44:10;;;;;;;23.00;17.70;;;3.30;99.90;;;;;;5033816;28;20427;-67
2021/03/21 02:46:40;;;;;;;18.23;16.37;;;3.30;99.90;;;;;;5033735;28;20880;-67
2021/03/21 02:49:19;;;;;;;22.10;19.70;;;3.30;99.90;;;;;;5033678;28;20506;-67
2021/03/21 02:51:51;;;;;;;20.07;16.60;;;3.40;99.90;;;;;;5033124;28;20466;-67
2021/03/21 02:54:25;;;;;;;18.17;16.27;;;3.30;99.90;;;;;;5033762;28;20449;-67
2021/03/21 02:56:58;;;;;;;20.83;16.17;;;3.20;99.90;;;;;;5033640;28;20399;-67
2021/03/21 02:59:31;;;;;;;18.17;15.70;;;3.30;99.90;;;;;;5033548;28;20399;-67
2021/03/21 03:02:02;;;;;;;25.83;16.10;;;3.30;99.90;;;;;;5033241;28;20435;-67
2021/03/21 03:04:33;;;;;;;17.43;15.60;;;3.30;99.90;;;;;;5033335;28;21116;-67
2021/03/21 03:07:09;;;;;;;24.07;16.67;;;3.30;99.90;;;;;;5033578;28;20407;-67
2021/03/21 03:09:46;;;;;;;20.17;15.43;;;3.30;99.90;;;;;;5033364;28;20410;-67
2021/03/21 03:12:14;;;;;;;18.10;16.20;;;3.40;99.90;;;;;;5032966;28;20538;-67
2021/03/21 03:14:41;;;;;;;17.37;15.57;;;3.30;99.90;;;;;;5033277;28;20490;-67
2021/03/21 03:17:14;;;;;;;17.37;15.50;;;3.30;99.90;;;;;;5033144;28;20434;-67
2021/03/21 03:20:03;;;;;;;16.47;14.77;;;3.30;99.90;;;;;;5033059;28;20395;-67
2021/03/21 03:22:34;;;;;;;17.43;13.20;;;3.30;99.90;;;;;;5032649;28;20485;-67
2021/03/21 03:25:15;;;;;;;17.77;15.07;;;3.20;99.90;;;;;;5032441;28;20408;-67
2021/03/21 03:27:53;;;;;;;15.10;12.93;;;3.40;99.90;;;;;;5033050;28;20438;-67
2021/03/21 03:30:30;;;;;;;15.73;14.00;;;3.40;99.90;;;;;;5032950;28;20403;-67
2021/03/21 03:32:55;;;;;;;19.53;15.33;;;3.40;99.90;;;;;;5032784;28;20455;-67
2021/03/21 03:35:22;;;;;;;20.00;14.37;;;3.40;99.90;;;;;;5032841;28;20437;-67
2021/03/21 03:37:48;;;;;;;18.20;13.73;;;3.40;99.90;;;;;;5032543;28;20505;-67
2021/03/21 03:40:15;;;;;;;17.60;15.70;;;3.40;99.90;;;;;;5032741;28;20404;-67
2021/03/21 03:43:02;;;;;;;16.50;13.50;;;3.40;99.90;;;;;;5032266;28;20199;-67
2021/03/21 03:45:38;;;;;;;14.30;11.77;;;3.40;99.90;;;;;;5032777;28;20402;-67
2021/03/21 03:48:12;;;;;;;21.37;15.30;;;3.50;99.90;;;;;;5032516;28;20406;-67
2021/03/21 03:50:37;;;;;;;15.00;13.33;;;3.50;99.90;;;;;;5032249;28;20443;-67
2021/03/21 03:53:15;;;;;;;17.10;13.73;;;3.50;99.90;;;;;;5032244;28;20463;-67
2021/03/21 03:55:55;;;;;;;19.33;14.10;;;3.50;99.90;;;;;;5032519;28;20160;-67
2021/03/21 03:58:35;;;;;;;13.80;11.90;;;3.50;99.90;;;;;;5032378;28;20399;-67
2021/03/21 04:01:11;;;;;;;20.30;14.00;;;3.60;99.90;;;;;;5032045;28;20478;-67
2021/03/21 04:03:40;;;;;;;18.97;14.10;;;3.60;99.90;;;;;;5032296;28;21002;-67
2021/03/21 04:06:30;;;;;;;20.37;13.70;;;3.60;99.90;;;;;;5032284;28;20407;-67
2021/03/21 04:09:18;;;;;;;22.00;15.10;;;3.60;99.90;;;;;;5032110;28;20406;-67
2021/03/21 04:12:01;;;;;;;17.03;14.90;;;3.60;99.90;;;;;;5031102;28;20469;-67
2021/03/21 04:14:56;;;;;;;18.03;13.97;;;3.60;99.90;;;;;;5032575;28;20439;-67
2021/03/21 04:17:39;;;;;;;22.47;16.40;;;3.70;99.90;;;;;;4996540;28;20447;-67
2021/03/21 04:20:07;;;;;;;15.77;14.17;;;3.60;99.90;;;;;;5032073;28;20399;-67
2021/03/21 04:22:40;;;;;;;16.13;13.97;;;3.70;99.90;;;;;;5031674;28;20493;-67
2021/03/21 04:25:17;;;;;;;17.20;12.70;;;3.70;99.90;;;;;;5032088;28;20439;-67
2021/03/21 04:27:53;;;;;;;15.90;13.63;;;3.70;99.90;;;;;;5031831;28;20403;-67
2021/03/21 04:30:26;;;;;;;18.27;12.83;;;3.70;99.90;;;;;;5032043;28;20414;-67
2021/03/21 04:32:52;;;;;;;20.07;16.53;;;3.70;99.90;;;;;;5031946;28;20537;-67
2021/03/21 04:35:38;;;;;;;16.37;14.63;;;3.70;99.90;;;;;;5031893;28;20408;-67
2021/03/21 04:38:15;;;;;;;16.97;14.97;;;3.70;99.90;;;;;;5031786;28;21045;-67
2021/03/21 04:40:42;;;;;;;18.27;13.77;;;3.80;99.90;;;;;;5031602;28;20906;-67
2021/03/21 04:43:21;;;;;;;16.53;14.03;;;3.80;99.90;;;;;;5031787;28;20427;-67
2021/03/21 04:45:53;;;;;;;15.47;13.30;;;3.90;99.90;;;;;;5031901;28;20421;-67
2021/03/21 04:48:25;;;;;;;16.73;12.63;;;3.80;99.90;;;;;;5031673;28;20419;-67
2021/03/21 04:51:04;;;;;;;16.33;14.10;;;3.90;99.90;;;;;;5031308;28;20414;-67
2021/03/21 04:53:48;;;;;;;16.87;13.57;;;3.90;99.90;;;;;;5031730;28;20431;-67
2021/03/21 04:56:21;;;;;;;16.23;13.23;;;3.90;99.90;;;;;;5031786;28;20419;-67
2021/03/21 04:58:52;;;;;;;14.67;13.17;;;3.90;99.90;;;;;;5031673;28;20395;-67
2021/03/21 05:01:35;;;;;;;14.73;11.70;;;3.90;99.90;;;;;;5031359;28;20399;-67
2021/03/21 05:04:06;;;;;;;15.80;12.67;;;3.90;99.90;;;;;;5031619;28;20422;-67
2021/03/21 05:07:02;;;;;;;12.13;10.93;;;3.90;99.90;;;;;;5031657;28;20461;-67
2021/03/21 05:09:36;;;;;;;12.13;10.10;;;4.00;99.90;;;;;;5030196;28;20420;-67
2021/03/21 05:12:10;;;;;;;10.40;9.30;;;4.00;99.90;;;;;;5031178;28;20462;-67
2021/03/21 05:14:42;;;;;;;11.33;9.27;;;4.00;99.90;;;;;;5031584;28;20395;-67
2021/03/21 05:17:15;;;;;;;11.73;9.13;;;4.00;99.90;;;;;;5031472;28;20399;-67
2021/03/21 05:20:00;;;;;;;12.27;10.97;;;4.00;99.90;;;;;;5031482;28;20400;-67
2021/03/21 05:22:39;;;;;;;12.83;9.00;;;4.00;99.90;;;;;;5031158;28;20506;-67
2021/03/21 05:25:10;;;;;;;11.13;10.13;;;4.00;99.90;;;;;;5031645;28;20410;-67
2021/03/21 05:27:41;;;;;;;10.10;9.10;;;4.00;99.90;;;;;;5031443;28;20407;-68
2021/03/21 05:30:18;;;;;;;10.47;9.37;;;4.10;99.90;;;;;;5031407;28;20470;-67
2021/03/21 05:32:47;;;;;;;10.17;9.00;;;4.10;99.90;;;;;;5030847;28;20527;-67
2021/03/21 05:35:21;;;;;;;13.17;11.83;;;4.10;99.90;;;;;;5031280;28;20896;-67
2021/03/21 05:37:53;;;;;;;10.83;9.07;;;4.20;99.90;;;;;;5031321;28;20480;-67
2021/03/21 05:41:16;;;;;;;10.03;9.10;;;4.20;99.90;;;;;;5031295;28;20395;-67
2021/03/21 05:44:06;;;;;;;10.40;9.50;;;4.10;99.90;;;;;;4970230;28;20473;-67
2021/03/21 05:47:08;;;;;;;10.13;9.13;;;4.20;99.90;;;;;;4970199;28;20467;-67
2021/03/21 05:50:08;;;;;;;14.27;9.70;;;4.10;99.90;;;;;;5034004;28;20409;-67
2021/03/21 05:53:08;;;;;;;12.93;9.40;;;4.10;99.90;;;;;;5034216;28;21090;-67
2021/03/21 05:55:51;;;;;;;15.13;9.43;;;4.10;99.90;;;;;;5034781;28;20410;-67
2021/03/21 05:58:35;;;;;;;14.30;11.40;;;4.10;99.90;;;;;;5034684;28;20447;-68
2021/03/21 06:01:35;;;;;;;19.10;10.50;;;4.10;99.90;;;;;;5034328;28;20915;-67
2021/03/21 06:04:38;;;;;;;12.27;8.87;;;4.10;99.90;;;;;;5034811;28;20849;-67
2021/03/21 06:07:43;;;;;;;14.60;9.97;;;4.20;99.90;;;;;;5034616;28;20543;-67
2021/03/21 06:10:22;;;;;;;10.00;8.47;;;4.20;99.90;;;;;;5031596;28;20900;-67
2021/03/21 06:13:05;;;;;;;10.80;9.70;;;4.20;99.90;;;;;;5034238;28;20480;-67
2021/03/21 06:16:05;;;;;;;10.40;9.40;;;4.20;99.90;;;;;;5034739;28;20391;-67
2021/03/21 06:18:55;;;;;;;10.83;9.47;;;4.10;99.90;;;;;;5034918;28;20404;-66
2021/03/21 06:21:48;;;;;;;10.70;9.20;;;4.10;99.90;;;;;;5034058;28;20930;-66
2021/03/21 06:24:29;;;;;;;25.93;11.50;;;4.20;99.90;;;;;;5034296;28;20439;-66
2021/03/21 06:26:57;;;;;;;34.47;13.17;;;4.20;99.90;;;;;;5034176;28;20407;-67
2021/03/21 06:29:25;;;;;;;10.77;9.13;;;4.20;99.90;;;;;;5032660;28;20455;-67
2021/03/21 06:32:15;;;;;;;11.07;7.87;;;4.20;99.90;;;;;;5033613;28;20507;-67
2021/03/21 06:34:51;;;;;;;46.93;11.83;;;4.30;99.90;;;;;;5034049;28;20395;-67
2021/03/21 06:37:45;;;;;;;18.20;12.20;;;4.30;99.90;;;;;;5034226;28;20502;-66
2021/03/21 06:40:29;;;;;;;20.03;12.33;;;4.40;99.90;;;;;;5033979;28;20449;-66
2021/03/21 06:43:07;;;;;;;13.27;11.70;;;4.40;99.90;;;;;;5033830;28;20573;-67
2021/03/21 06:45:38;;;;;;;13.80;12.40;;;4.40;99.90;;;;;;5033811;28;20399;-68
2021/03/21 06:48:07;;;;;;;15.13;13.27;;;4.40;99.90;;;;;;5033701;28;20772;-66
2021/03/21 06:50:47;;;;;;;18.83;13.60;;;4.40;99.90;;;;;;5033432;28;20805;-66
2021/03/21 06:53:16;;;;;;;19.83;15.00;;;4.40;99.90;;;;;;5032254;28;20466;-67
2021/03/21 06:55:51;;;;;;;17.60;14.67;;;4.40;99.90;;;;;;5033557;28;20525;-66
2021/03/21 06:58:32;;;;;;;18.40;15.00;;;4.40;99.90;;;;;;5033591;28;20414;-67
2021/03/21 07:01:13;;;;;;;17.30;15.23;;;4.50;99.90;;;;;;5032126;28;20444;-67
2021/03/21 07:03:52;;;;;;;19.90;16.53;;;4.50;99.90;;;;;;5033459;28;20436;-67
2021/03/21 07:06:36;;;;;;;17.07;11.67;;;4.60;99.90;;;;;;5033381;28;20403;-66
2021/03/21 07:09:05;;;;;;;18.77;14.63;;;4.50;99.90;;;;;;5033426;28;20406;-67
2021/03/21 07:11:37;;;;;;;19.70;14.30;;;4.60;99.90;;;;;;5032982;28;20451;-67
2021/03/21 07:14:35;;;;;;;19.03;12.83;;;4.60;99.90;;;;;;5033278;28;20420;-67
2021/03/21 07:17:25;;;;;;;19.83;14.03;;;4.60;99.90;;;;;;5033230;28;20768;-67
2021/03/21 07:20:27;;;;;;;16.90;13.13;;;4.70;99.90;;;;;;5033054;28;20426;-67
2021/03/21 07:23:23;;;;;;;15.40;12.07;;;4.80;99.90;;;;;;5033013;28;20423;-66
2021/03/21 07:25:58;;;;;;;16.50;12.27;;;4.80;99.90;;;;;;5033015;28;20411;-67
2021/03/21 07:29:10;;;;;;;11.13;10.00;;;4.70;99.90;;;;;;5032912;28;20415;-67
2021/03/21 07:31:58;;;;;;;12.33;11.03;;;4.80;99.90;;;;;;5032632;28;20455;-67
2021/03/21 07:34:41;;;;;;;14.03;11.30;;;4.90;99.90;;;;;;5032882;28;20430;-67
2021/03/21 07:37:40;;;;;;;22.17;15.30;;;4.80;99.90;;;;;;5032844;28;20947;-66
2021/03/21 07:40:18;;;;;;;16.50;13.60;;;4.90;99.90;;;;;;5032743;28;20740;-68
2021/03/21 07:43:22;;;;;;;13.13;11.27;;;5.00;99.90;;;;;;5032409;28;20430;-66
2021/03/21 07:46:05;;;;;;;16.23;12.33;;;4.90;99.90;;;;;;4991963;28;20935;-67
2021/03/21 07:49:04;;;;;;;18.87;12.90;;;5.00;99.90;;;;;;5032571;28;20919;-67
2021/03/21 07:51:57;;;;;;;18.80;10.60;;;5.00;99.90;;;;;;5032196;28;20825;-67
2021/03/21 07:54:44;;;;;;;15.80;11.77;;;5.10;99.90;;;;;;5032539;28;20400;-67
2021/03/21 07:57:18;;;;;;;15.80;13.27;;;5.10;99.90;;;;;;5032494;28;20431;-67
2021/03/21 07:59:46;;;;;;;36.30;20.33;;;5.30;99.90;;;;;;5032433;28;20395;-66
2021/03/21 08:02:26;;;;;;;25.40;16.07;;;5.10;99.90;;;;;;5032003;28;20430;-67
2021/03/21 08:04:58;;;;;;;21.67;14.70;;;5.10;99.90;;;;;;5032260;28;20931;-67
2021/03/21 08:07:33;;;;;;;23.20;15.60;;;5.10;99.90;;;;;;5032657;28;20830;-67
2021/03/21 08:10:00;;;;;;;20.20;14.97;;;5.20;99.90;;;;;;5032302;28;20414;-67
2021/03/21 08:12:42;;;;;;;26.73;16.90;;;5.20;99.90;;;;;;5031442;28;20963;-67
2021/03/21 08:15:17;;;;;;;19.30;13.40;;;5.20;99.90;;;;;;5032162;28;20410;-68
2021/03/21 08:17:49;;;;;;;19.33;13.37;;;5.20;99.90;;;;;;5032135;28;20768;-68
2021/03/21 08:20:37;;;;;;;22.47;15.43;;;5.30;99.90;;;;;;5032190;28;20483;-66
2021/03/21 08:23:25;;;;;;;24.50;14.27;;;5.30;99.90;;;;;;5031979;28;20789;-66
2021/03/21 08:25:53;;;;;;;17.43;13.07;;;5.20;99.90;;;;;;5032077;28;20396;-66
2021/03/21 08:28:23;;;;;;;17.30;11.70;;;5.30;99.90;;;;;;5031931;28;20853;-66
2021/03/21 08:30:49;;;;;;;16.33;13.23;;;5.30;99.90;;;;;;5031740;28;20410;-66
2021/03/21 08:33:37;;;;;;;14.40;11.03;;;5.30;99.90;;;;;;5031767;28;20454;-67
2021/03/21 08:36:19;;;;;;;15.80;10.27;;;5.40;99.90;;;;;;5032186;28;20640;-67
2021/03/21 08:39:05;;;;;;;14.70;11.83;;;5.50;99.90;;;;;;5032115;28;20417;-67
2021/03/21 08:41:46;;;;;;;21.40;12.47;;;5.50;99.90;;;;;;5031482;28;20443;-66
2021/03/21 08:44:39;;;;;;;16.20;13.77;;;5.50;99.90;;;;;;5031798;28;20829;-66
2021/03/21 08:47:15;;;;;;;22.80;13.00;;;5.50;99.90;;;;;;5031840;28;20403;-67
2021/03/21 08:49:47;;;;;;;18.73;13.00;;;5.60;99.90;;;;;;5031944;28;20764;-67
2021/03/21 08:52:27;;;;;;;22.47;15.57;;;5.60;99.90;;;;;;5031177;28;20459;-68
2021/03/21 08:54:53;;;;;;;15.33;11.70;;;5.50;99.90;;;;;;5031798;28;20929;-68
2021/03/21 08:57:36;;;;;;;17.90;10.20;;;5.50;99.90;;;;;;5031705;28;20411;-67
2021/03/21 09:00:27;;;;;;;22.13;11.83;;;5.60;99.90;;;;;;5031595;28;20165;-67
2021/03/21 09:02:53;;;;;;;23.97;13.50;;;5.60;99.90;;;;;;5022368;28;20439;-67
2021/03/21 09:05:21;;;;;;;20.00;11.70;;;5.70;99.90;;;;;;5031626;28;20494;-68
2021/03/21 09:07:50;;;;;;;17.50;10.70;;;5.70;99.90;;;;;;5031568;28;20805;-67
2021/03/21 09:10:24;;;;;;;11.23;8.60;;;5.70;99.90;;;;;;5031569;28;20399;-67
2021/03/21 09:13:02;;;;;;;12.67;10.50;;;5.70;99.90;;;;;;5031281;28;20450;-67
2021/03/21 09:15:33;;;;;;;9.77;8.17;;;5.80;99.90;;;;;;5031427;28;20434;-68
2021/03/21 09:18:04;;;;;;;11.77;9.17;;;5.80;99.90;;;;;;5031398;28;20481;-67
2021/03/21 09:20:34;;;;;;;16.30;10.33;;;5.80;99.90;;;;;;5031223;28;20763;-67
2021/03/21 09:22:59;;;;;;;13.13;9.97;;;5.80;99.90;;;;;;5031934;28;20419;-67
2021/03/21 09:25:31;;;;;;;11.93;8.97;;;5.80;99.90;;;;;;5035321;28;20953;-66
2021/03/21 09:27:58;;;;;;;12.13;7.90;;;5.80;99.90;;;;;;5035223;28;20541;-66
2021/03/21 09:30:40;;;;;;;12.97;7.93;;;5.90;99.90;;;;;;5035031;28;20410;-67
2021/03/21 09:33:09;;;;;;;12.40;7.57;;;5.90;99.90;;;;;;5035269;28;20455;-67
2021/03/21 09:35:42;;;;;;;8.60;7.37;;;6.00;99.90;;;;;;5035150;28;20498;-67
2021/03/21 09:38:27;;;;;;;7.27;6.57;;;6.00;99.90;;;;;;5035017;28;20403;-67
2021/03/21 09:41:04;;;;;;;9.80;6.90;;;6.00;99.90;;;;;;5034697;28;20912;-67
2021/03/21 09:43:34;;;;;;;11.23;7.20;;;5.90;99.90;;;;;;5034960;28;20414;-67
2021/03/21 09:46:06;;;;;;;7.80;6.50;;;6.00;99.90;;;;;;5035122;28;20400;-67
2021/03/21 09:48:37;;;;;;;7.10;5.47;;;6.00;99.90;;;;;;5034805;28;20403;-67
2021/03/21 09:51:21;;;;;;;9.43;7.03;;;6.00;99.90;;;;;;5034412;28;20400;-67
2021/03/21 09:54:12;;;;;;;6.73;6.17;;;6.00;99.90;;;;;;5034809;28;20466;-68
2021/03/21 09:56:45;;;;;;;6.60;6.00;;;6.00;99.90;;;;;;5034736;28;20762;-67
2021/03/21 09:59:23;;;;;;;8.23;6.00;;;6.00;99.90;;;;;;5033306;28;20795;-67
2021/03/21 10:01:59;;;;;;;6.27;5.77;;;5.90;99.90;;;;;;5034270;28;20403;-67
2021/03/21 10:04:33;;;;;;;7.57;5.10;;;5.90;99.90;;;;;;5034704;28;20399;-66
2021/03/21 10:07:06;;;;;;;7.77;4.87;;;6.00;99.90;;;;;;5034611;28;20394;-67
2021/03/21 10:09:34;;;;;;;6.67;5.53;;;6.10;99.90;;;;;;5034344;28;20416;-68
2021/03/21 10:12:05;;;;;;;10.03;6.30;;;6.20;99.90;;;;;;5033961;28;20466;-67
2021/03/21 10:14:31;;;;;;;6.17;5.07;;;6.20;99.90;;;;;;5034408;28;20758;-66
2021/03/21 10:17:16;;;;;;;5.83;5.03;;;6.30;99.90;;;;;;5034427;28;20395;-67
2021/03/21 10:19:48;;;;;;;5.97;5.07;;;6.40;99.90;;;;;;5034329;28;20168;-68
2021/03/21 10:22:16;;;;;;;6.63;5.53;;;6.50;99.90;;;;;;5033931;28;20444;-68
2021/03/21 10:24:43;;;;;;;5.77;4.57;;;6.60;99.90;;;;;;5034249;28;20841;-67
2021/03/21 10:27:11;;;;;;;6.30;5.70;;;6.70;99.90;;;;;;5034282;28;20418;-67
2021/03/21 10:29:40;;;;;;;5.57;5.07;;;6.70;99.90;;;;;;5034095;28;20412;-67
2021/03/21 10:32:26;;;;;;;6.40;3.83;;;6.80;99.90;;;;;;5033707;28;20448;-68
2021/03/21 10:34:52;;;;;;;14.03;5.60;;;6.90;99.90;;;;;;5033944;28;20410;-66
2021/03/21 10:37:42;;;;;;;7.27;5.63;;;6.90;99.90;;;;;;5034138;28;20906;-67
2021/03/21 10:40:13;;;;;;;10.80;7.23;;;6.90;99.90;;;;;;5033909;28;20399;-66
2021/03/21 10:42:49;;;;;;;9.73;8.00;;;6.90;99.90;;;;;;5033528;28;20480;-68
2021/03/21 10:45:18;;;;;;;5.53;5.00;;;6.90;99.90;;;;;;5033922;28;20395;-67
2021/03/21 10:47:47;;;;;;;7.77;6.90;;;6.90;99.90;;;;;;5033793;28;20469;-67
2021/03/21 10:50:28;;;;;;;7.07;5.67;;;6.80;99.90;;;;;;5033791;28;20403;-68
2021/03/21 10:53:15;;;;;;;7.77;6.73;;;6.80;99.90;;;;;;5033617;28;20499;-67
2021/03/21 10:55:59;;;;;;;10.07;6.30;;;6.70;99.90;;;;;;5033646;28;20431;-69
2021/03/21 10:58:38;;;;;;;17.77;9.70;;;6.80;99.90;;;;;;5033543;28;20408;-68
2021/03/21 11:01:19;;;;;;;12.87;8.53;;;6.80;99.90;;;;;;5033324;28;20800;-67
2021/03/21 11:03:47;;;;;;;17.33;12.37;;;7.00;99.90;;;;;;5033447;28;20829;-67
2021/03/21 11:06:23;;;;;;;8.90;7.60;;;7.00;99.90;;;;;;5033508;28;20411;-67
2021/03/21 11:08:49;;;;;;;11.67;6.63;;;7.10;99.90;;;;;;5033341;28;20451;-67
2021/03/21 11:11:44;;;;;;;9.40;4.80;;;7.10;99.90;;;;;;5032923;28;20438;-67
2021/03/21 11:14:23;;;;;;;10.07;9.07;;;7.10;99.90;;;;;;5030190;28;20857;-67
2021/03/21 11:17:21;;;;;;;8.93;8.03;;;7.00;99.90;;;;;;5033277;28;20495;-68
2021/03/21 11:19:52;;;;;;;9.80;5.17;;;6.90;99.90;;;;;;5027642;28;20428;-67
2021/03/21 11:22:37;;;;;;;5.83;3.63;;;6.90;99.90;;;;;;5032829;28;20423;-67
2021/03/21 11:25:05;;;;;;;7.43;5.67;;;6.90;99.90;;;;;;5033152;28;20416;-67
2021/03/21 11:27:35;;;;;;;14.47;4.60;;;7.00;99.90;;;;;;5033082;28;20405;-67
2021/03/21 11:30:13;;;;;;;5.00;4.33;;;7.00;99.90;;;;;;5032920;28;20932;-67
2021/03/21 11:32:39;;;;;;;12.27;8.60;;;7.10;99.90;;;;;;5032499;28;20468;-67
2021/03/21 11:35:15;;;;;;;6.20;4.70;;;7.10;99.90;;;;;;5033470;28;20768;-67
2021/03/21 11:37:43;;;;;;;11.10;5.67;;;7.40;99.90;;;;;;5032770;28;20415;-67
2021/03/21 11:40:34;;;;;;;5.50;4.90;;;7.90;99.90;;;;;;5032811;28;20428;-67
2021/03/21 11:43:20;;;;;;;8.20;5.03;;;8.40;99.90;;;;;;5032736;28;20568;-67
2021/03/21 11:45:47;;;;;;;4.37;4.00;;;8.60;99.20;;;;;;5032254;28;20416;-67
2021/03/21 11:48:30;;;;;;;6.83;5.10;;;8.50;97.70;;;;;;5032595;28;20420;-66
2021/03/21 11:50:56;;;;;;;6.30;4.90;;;8.40;98.10;;;;;;5032289;28;20504;-67
2021/03/21 11:53:29;;;;;;;5.80;5.00;;;8.30;98.10;;;;;;5032419;28;20516;-67
2021/03/21 11:56:01;;;;;;;4.70;4.30;;;8.30;98.20;;;;;;5032537;28;20402;-68
2021/03/21 11:58:36;;;;;;;7.03;5.37;;;8.30;97.80;;;;;;5032328;28;20491;-67
2021/03/21 12:01:12;;;;;;;8.70;4.90;;;8.30;97.20;;;;;;5032184;28;20489;-67
2021/03/21 12:04:09;;;;;;;6.23;5.63;;;8.30;97.10;;;;;;5032430;28;20473;-67
2021/03/21 12:06:43;;;;;;;19.93;7.87;;;8.20;96.30;;;;;;5020286;28;20432;-67
2021/03/21 12:09:24;;;;;;;11.43;7.47;;;8.10;96.10;;;;;;5032298;28;20559;-68
2021/03/21 12:11:50;;;;;;;17.90;11.50;;;8.00;95.50;;;;;;5031885;28;20521;-67
2021/03/21 12:14:26;;;;;;;27.87;16.90;;;8.20;95.50;;;;;;5032291;28;20873;-67
2021/03/21 12:16:53;;;;;;;18.13;11.33;;;8.20;95.50;;;;;;5032323;28;20403;-67
2021/03/21 12:19:24;;;;;;;9.57;5.20;;;8.30;95.40;;;;;;5032743;28;20506;-68
2021/03/21 12:21:56;;;;;;;20.90;13.53;;;8.20;96.00;;;;;;5031790;28;20421;-68
2021/03/21 12:24:25;;;;;;;9.73;8.80;;;8.30;96.00;;;;;;5032142;28;20398;-68
2021/03/21 12:27:12;;;;;;;12.20;7.50;;;8.30;95.90;;;;;;5030756;28;20419;-68
2021/03/21 12:29:45;;;;;;;17.10;9.20;;;8.40;97.40;;;;;;5021146;28;20482;-68
2021/03/21 12:32:17;;;;;;;9.33;6.10;;;8.40;96.70;;;;;;5031770;28;20466;-68
2021/03/21 12:34:44;;;;;;;4.80;4.40;;;8.40;96.30;;;;;;5031998;28;20416;-68
2021/03/21 12:37:26;;;;;;;13.37;12.07;;;8.30;96.40;;;;;;5031934;28;20410;-67
2021/03/21 12:40:06;;;;;;;10.40;6.60;;;8.20;96.20;;;;;;5031966;28;20413;-68
2021/03/21 12:42:38;;;;;;;5.97;5.30;;;8.10;96.40;;;;;;5031655;28;20430;-68
2021/03/21 12:45:21;;;;;;;8.93;6.03;;;8.10;96.70;;;;;;5031924;28;20421;-68
2021/03/21 12:47:55;;;;;;;6.43;4.73;;;8.00;96.80;;;;;;5031745;28;20402;-68
2021/03/21 12:50:39;;;;;;;4.83;4.43;;;7.90;96.50;;;;;;5031793;28;20415;-68
2021/03/21 12:53:25;;;;;;;6.27;3.83;;;7.80;96.60;;;;;;5031631;28;20473;-68
2021/03/21 12:55:53;;;;;;;10.97;4.23;;;7.80;97.00;;;;;;5031553;28;20418;-68
2021/03/21 12:58:19;;;;;;;5.80;3.97;;;7.70;96.50;;;;;;5032730;28;20406;-68
2021/03/21 13:00:46;;;;;;;5.87;4.20;;;7.70;96.70;;;;;;5035625;28;20410;-68
2021/03/21 13:03:30;;;;;;;7.00;5.47;;;7.80;97.10;;;;;;5035723;28;20431;-68
2021/03/21 13:05:59;;;;;;;8.80;3.93;;;8.00;97.10;;;;;;5035843;28;20846;-68
2021/03/21 13:08:27;;;;;;;5.67;5.10;;;8.30;96.90;;;;;;5035714;28;20414;-68
2021/03/21 13:10:53;;;;;;;4.70;3.10;;;8.50;96.00;;;;;;5035441;28;20411;-68
2021/03/21 13:13:18;;;;;;;12.73;4.07;;;8.60;95.70;;;;;;5035534;28;20971;-68
2021/03/21 13:15:44;;;;;;;9.50;4.53;;;8.60;95.40;;;;;;5035680;28;20254;-68
2021/03/21 13:18:17;;;;;;;9.50;3.73;;;8.40;94.40;;;;;;5035540;28;20399;-68
2021/03/21 13:20:43;;;;;;;18.77;9.63;;;8.40;94.50;;;;;;5035211;28;20391;-68
2021/03/21 13:23:08;;;;;;;15.30;7.77;;;8.40;94.60;;;;;;5035321;28;20806;-68
2021/03/21 13:25:34;;;;;;;15.73;7.30;;;8.20;93.90;;;;;;5035350;28;20772;-68
2021/03/21 13:28:03;;;;;;;11.03;5.80;;;8.20;93.70;;;;;;5035363;28;20176;-68
2021/03/21 13:30:32;;;;;;;21.90;6.33;;;8.20;94.00;;;;;;5035044;28;20422;-68